Time;durP1;ratioP1;P1;durP2;ratioP2;P2;SDS_P1;SDS_P2;PMS_P1;PMS_P2;Temp;Humidity;BMP_temperature;BMP_pressure;BME280_temperature;BME280_humidity;BME280_pressure;Samples;Min_cycle;Max_cycle;Signal;HPM_P1;HPM_P2
2022/10/21 00:00:57;;;;;;;33.08;21.67;;;;;;;11.71;100.00;92881.06;2131692;27;20027;-70
2022/10/21 00:01:58;;;;;;;36.65;22.30;;;;;;;11.66;100.00;92874.31;2131674;27;20109;-72
2022/10/21 00:03:00;;;;;;;30.83;20.67;;;;;;;11.61;100.00;92866.84;2131091;27;20018;-69
2022/10/21 00:04:02;;;;;;;30.95;19.23;;;;;;;11.67;100.00;92869.72;2131518;27;20109;-72
2022/10/21 00:05:05;;;;;;;29.58;19.13;;;;;;;11.65;100.00;92861.38;2130980;27;20110;-71
2022/10/21 00:06:08;;;;;;;29.63;18.05;;;;;;;11.64;100.00;92870.59;2127672;27;20034;-70
2022/10/21 00:07:09;;;;;;;28.67;17.17;;;;;;;11.65;100.00;92861.38;2131650;27;20053;-69
2022/10/21 00:08:10;;;;;;;22.60;13.60;;;;;;;11.70;100.00;92869.63;2131378;27;20019;-69
2022/10/21 00:09:11;;;;;;;20.00;13.05;;;;;;;11.70;100.00;92863.50;2131532;27;20062;-69
2022/10/21 00:10:12;;;;;;;25.75;13.68;;;;;;;11.81;100.00;92862.03;2130761;27;20019;-69
2022/10/21 00:11:13;;;;;;;22.15;13.45;;;;;;;11.84;100.00;92863.09;2131476;27;20034;-68
2022/10/21 00:12:14;;;;;;;21.65;12.00;;;;;;;11.86;100.00;92868.78;2131608;27;20022;-69
2022/10/21 00:13:16;;;;;;;23.63;12.00;;;;;;;11.95;100.00;92866.22;2131038;27;20069;-69
2022/10/21 00:14:18;;;;;;;20.38;10.90;;;;;;;11.94;100.00;92862.03;2131535;27;20476;-70
2022/10/21 00:15:19;;;;;;;23.65;11.13;;;;;;;11.92;100.00;92855.59;2130702;27;20027;-69
2022/10/21 00:16:20;;;;;;;17.48;10.50;;;;;;;11.90;100.00;92853.38;2131481;27;20023;-69
2022/10/21 00:17:21;;;;;;;18.15;10.23;;;;;;;11.92;100.00;92855.59;2131467;27;20050;-71
2022/10/21 00:18:22;;;;;;;18.83;9.95;;;;;;;11.88;100.00;92855.72;2131394;27;20368;-69
2022/10/21 00:19:23;;;;;;;19.80;9.07;;;;;;;12.05;100.00;92851.72;2131408;27;20672;-72
2022/10/21 00:20:24;;;;;;;19.02;8.02;;;;;;;11.95;100.00;92857.44;2121537;27;20405;-72
2022/10/21 00:21:25;;;;;;;13.05;7.30;;;;;;;11.94;100.00;92851.31;2122212;27;20027;-69
2022/10/21 00:22:26;;;;;;;18.95;6.13;;;;;;;11.93;100.00;92851.75;2131579;27;20353;-68
2022/10/21 00:23:27;;;;;;;13.50;7.28;;;;;;;11.93;100.00;92855.16;2130922;27;20110;-69
2022/10/21 00:24:28;;;;;;;13.98;6.32;;;;;;;11.91;100.00;92854.13;2131396;27;20034;-68
2022/10/21 00:25:29;;;;;;;13.65;6.90;;;;;;;11.90;100.00;92855.31;2131497;27;20460;-70
2022/10/21 00:26:32;;;;;;;13.23;7.38;;;;;;;11.90;100.00;92857.97;2130202;27;20046;-69
2022/10/21 00:27:33;;;;;;;9.70;6.13;;;;;;;12.06;100.00;92855.16;2131366;27;20026;-69
2022/10/21 00:28:34;;;;;;;14.38;5.53;;;;;;;12.08;100.00;92850.88;2131157;27;20033;-69
2022/10/21 00:29:35;;;;;;;12.32;6.05;;;;;;;12.08;100.00;92848.19;2127217;27;20121;-70
2022/10/21 00:30:42;;;;;;;15.20;6.00;;;;;;;12.05;100.00;92849.06;2131091;27;20019;-69
2022/10/21 00:31:42;;;;;;;13.75;5.93;;;;;;;12.00;100.00;92860.31;2130632;27;20022;-69
2022/10/21 00:32:43;;;;;;;19.05;8.73;;;;;;;12.07;100.00;92848.59;2131374;27;20443;-69
2022/10/21 00:33:44;;;;;;;15.52;9.57;;;;;;;12.06;100.00;92852.47;2130900;27;20075;-69
2022/10/21 00:34:46;;;;;;;22.48;11.55;;;;;;;12.00;100.00;92841.56;2122053;27;20034;-69
2022/10/21 00:35:52;;;;;;;20.10;11.07;;;;;;;11.94;100.00;92859.38;2122195;27;20054;-68
2022/10/21 00:36:52;;;;;;;22.52;11.60;;;;;;;12.07;100.00;92856.66;2130733;27;20382;-70
2022/10/21 00:37:53;;;;;;;23.55;14.73;;;;;;;12.10;100.00;92855.78;2131600;27;20030;-70
2022/10/21 00:38:55;;;;;;;27.42;16.42;;;;;;;12.06;100.00;92855.16;2130489;27;20882;-70
2022/10/21 00:39:57;;;;;;;26.00;14.85;;;;;;;12.09;100.00;92843.59;2131546;27;20022;-70
2022/10/21 00:40:58;;;;;;;24.58;15.05;;;;;;;12.15;100.00;92841.84;2131498;27;20045;-69
2022/10/21 00:41:59;;;;;;;27.38;14.45;;;;;;;12.03;100.00;92848.75;2131390;27;20042;-69
2022/10/21 00:43:00;;;;;;;25.50;14.52;;;;;;;11.96;100.00;92843.59;2130909;27;20453;-69
2022/10/21 00:44:02;;;;;;;22.40;15.75;;;;;;;11.95;100.00;92844.78;2131052;27;20034;-68
2022/10/21 00:45:06;;;;;;;22.63;15.10;;;;;;;11.91;100.00;92854.84;2131129;27;20030;-68
2022/10/21 00:46:08;;;;;;;26.63;17.38;;;;;;;11.86;100.00;92852.72;2126975;27;20477;-68
2022/10/21 00:47:17;;;;;;;30.00;16.83;;;;;;;11.86;100.00;92858.09;2127635;27;20105;-68
2022/10/21 00:48:53;;;;;;;27.45;17.73;;;;;;;11.80;100.00;92863.19;2130264;27;20396;-70
2022/10/21 00:49:59;;;;;;;23.38;16.13;;;;;;;11.80;100.00;92851.72;2125563;27;20173;-69
2022/10/21 00:51:05;;;;;;;29.13;16.70;;;;;;;11.78;100.00;92856.78;2131303;27;20063;-69
2022/10/21 00:52:13;;;;;;;27.90;16.98;;;;;;;11.79;100.00;92863.63;2129032;27;20414;-68
2022/10/21 00:53:15;;;;;;;25.10;17.30;;;;;;;11.81;100.00;92863.94;2130835;27;20035;-69
2022/10/21 00:54:19;;;;;;;28.42;16.33;;;;;;;11.79;100.00;92871.66;2131056;27;20469;-70
2022/10/21 00:55:21;;;;;;;26.63;15.90;;;;;;;11.80;100.00;92883.84;2131225;27;20022;-69
2022/10/21 00:56:25;;;;;;;21.98;14.40;;;;;;;11.81;100.00;92877.34;2121884;27;20114;-69
2022/10/21 00:57:28;;;;;;;24.35;15.07;;;;;;;11.80;100.00;92873.16;2122057;27;20019;-69
2022/10/21 00:58:32;;;;;;;30.33;14.73;;;;;;;11.80;100.00;92871.22;2131082;27;20014;-69
2022/10/21 00:59:37;;;;;;;25.10;14.60;;;;;;;11.82;100.00;92865.44;2121646;27;20473;-70
2022/10/21 01:00:38;;;;;;;21.15;13.57;;;;;;;11.78;100.00;92868.22;2119010;27;20027;-69
2022/10/21 01:01:39;;;;;;;22.52;12.82;;;;;;;11.79;100.00;92872.41;2130948;27;20030;-69
2022/10/21 01:02:40;;;;;;;19.77;11.85;;;;;;;11.89;100.00;92867.91;2130406;27;20075;-69
2022/10/21 01:03:41;;;;;;;16.05;10.13;;;;;;;11.88;100.00;92865.69;2130783;27;20480;-69
2022/10/21 01:04:43;;;;;;;15.02;8.80;;;;;;;11.90;100.00;92863.34;2130912;27;20022;-69
2022/10/21 01:05:45;;;;;;;15.18;7.05;;;;;;;11.89;100.00;92862.56;2131108;27;20363;-71
2022/10/21 01:06:46;;;;;;;13.07;6.93;;;;;;;11.94;100.00;92858.59;2130909;27;20027;-69
2022/10/21 01:07:49;;;;;;;14.98;6.53;;;;;;;11.93;100.00;92859.78;2130171;27;20110;-69
2022/10/21 01:08:53;;;;;;;12.38;5.93;;;;;;;11.94;100.00;92853.22;2130935;27;20095;-69
2022/10/21 01:09:54;;;;;;;13.40;6.18;;;;;;;11.90;100.00;92853.38;2130795;27;20019;-70
2022/10/21 01:10:56;;;;;;;12.90;5.95;;;;;;;11.95;100.00;92855.50;2131005;27;20038;-71
2022/10/21 01:12:00;;;;;;;11.65;6.20;;;;;;;11.96;100.00;92853.56;2130950;27;20022;-69
2022/10/21 01:13:43;;;;;;;11.75;5.20;;;;;;;12.08;100.00;92853.56;2129900;27;20509;-69
2022/10/21 01:15:00;;;;;;;14.20;6.25;;;;;;;12.06;100.00;92842.50;2127774;27;20026;-69
2022/10/21 01:16:25;;;;;;;16.15;7.35;;;;;;;12.05;100.00;92835.66;2131153;27;20038;-69
2022/10/21 01:17:39;;;;;;;16.70;9.07;;;;;;;11.99;100.00;92840.06;2128936;27;20062;-71
2022/10/21 01:18:56;;;;;;;15.70;10.07;;;;;;;12.14;100.00;92834.25;2123244;27;20447;-70
2022/10/21 01:20:24;;;;;;;19.63;12.20;;;;;;;12.09;100.00;92827.50;2130775;27;20018;-71
2022/10/21 01:21:39;;;;;;;26.27;13.13;;;;;;;12.04;100.00;92817.34;2129757;27;20031;-69
2022/10/21 01:23:19;;;;;;;22.95;13.73;;;;;;;11.96;100.00;92816.81;2126666;27;20030;-69
2022/10/21 01:24:32;;;;;;;28.50;13.63;;;;;;;11.93;100.00;92820.34;2128859;27;20038;-69
2022/10/21 01:25:52;;;;;;;25.33;14.57;;;;;;;11.86;100.00;92809.88;2130790;27;20030;-70
2022/10/21 01:26:55;;;;;;;21.42;14.00;;;;;;;11.88;100.00;92804.81;2127750;27;20034;-70
2022/10/21 01:28:18;;;;;;;17.25;12.70;;;;;;;11.88;100.00;92801.41;2130244;27;20087;-68
2022/10/21 01:29:46;;;;;;;27.58;14.05;;;;;;;11.85;100.00;92794.97;2128682;27;20035;-69
2022/10/21 01:30:56;;;;;;;21.05;13.25;;;;;;;11.84;100.00;92790.78;2128338;27;20102;-71
2022/10/21 01:32:12;;;;;;;19.27;13.13;;;;;;;11.90;100.00;92789.09;2130898;27;20042;-69
2022/10/21 01:33:30;;;;;;;22.48;13.32;;;;;;;11.86;100.00;92791.13;2126889;27;20034;-69
2022/10/21 01:34:51;;;;;;;17.38;12.82;;;;;;;11.86;100.00;92787.72;2130876;27;20026;-70
2022/10/21 01:36:01;;;;;;;19.40;12.43;;;;;;;11.88;100.00;92788.75;2128865;27;20037;-69
2022/10/21 01:37:14;;;;;;;24.90;11.68;;;;;;;11.81;100.00;92783.63;2130909;27;20022;-69
2022/10/21 01:38:26;;;;;;;19.77;12.10;;;;;;;11.76;100.00;92787.56;2127279;27;20577;-69
2022/10/21 01:39:53;;;;;;;22.63;12.25;;;;;;;11.72;100.00;92794.22;2130781;27;20023;-69
2022/10/21 01:41:06;;;;;;;16.58;10.93;;;;;;;11.80;100.00;92788.19;2128891;27;20418;-69
2022/10/21 01:42:26;;;;;;;17.80;10.77;;;;;;;11.76;100.00;92779.53;2126990;27;20034;-69
2022/10/21 01:43:53;;;;;;;19.83;10.57;;;;;;;11.68;100.00;92780.94;2130389;27;20400;-70
2022/10/21 01:45:03;;;;;;;15.35;11.35;;;;;;;11.65;100.00;92786.41;2129415;27;20080;-69
2022/10/21 01:46:13;;;;;;;16.83;10.82;;;;;;;11.63;100.00;92789.50;2130553;27;20836;-69
2022/10/21 01:47:45;;;;;;;22.42;11.95;;;;;;;11.60;100.00;92785.03;2126299;27;20043;-69
2022/10/21 01:48:53;;;;;;;17.33;12.05;;;;;;;11.60;100.00;92798.41;2122970;27;20035;-69
2022/10/21 01:50:03;;;;;;;23.75;11.52;;;;;;;11.67;100.00;92792.06;2129943;27;20547;-69
2022/10/21 01:51:06;;;;;;;23.10;12.18;;;;;;;11.60;100.00;92793.06;2130636;27;20023;-71
2022/10/21 01:52:07;;;;;;;17.15;11.65;;;;;;;11.65;100.00;92786.41;2126937;27;20077;-71
2022/10/21 01:53:12;;;;;;;22.00;13.20;;;;;;;11.63;100.00;92784.16;2130274;27;20114;-69
2022/10/21 01:54:18;;;;;;;20.17;11.93;;;;;;;11.64;100.00;92779.56;2130890;27;20058;-69
2022/10/21 01:55:22;;;;;;;20.58;12.13;;;;;;;11.66;100.00;92782.56;2130097;27;20027;-69
2022/10/21 01:56:24;;;;;;;19.45;11.52;;;;;;;11.91;100.00;92771.09;2130744;27;20448;-69
2022/10/21 01:57:31;;;;;;;18.25;11.13;;;;;;;11.88;100.00;92780.72;2130882;27;20076;-69
2022/10/21 01:58:34;;;;;;;16.55;10.80;;;;;;;11.80;100.00;92779.41;2130867;27;20034;-70
2022/10/21 01:59:38;;;;;;;18.50;11.57;;;;;;;11.75;100.00;92786.06;2130421;27;20031;-69
2022/10/21 02:00:41;;;;;;;23.15;11.77;;;;;;;11.72;100.00;92783.50;2129325;27;20027;-69
2022/10/21 02:01:45;;;;;;;17.60;10.85;;;;;;;11.71;100.00;92787.34;2121247;27;20122;-69
2022/10/21 02:02:48;;;;;;;14.80;9.85;;;;;;;11.67;100.00;92782.13;2113462;28;20023;-70
2022/10/21 02:03:56;;;;;;;17.75;10.98;;;;;;;11.67;100.00;92784.03;2121623;27;20110;-69
2022/10/21 02:05:02;;;;;;;17.73;10.88;;;;;;;11.67;100.00;92778.69;2130601;27;20166;-70
2022/10/21 02:06:04;;;;;;;14.48;10.13;;;;;;;11.66;100.00;92785.97;2130120;27;20026;-71
2022/10/21 02:07:04;;;;;;;18.67;10.68;;;;;;;11.64;100.00;92783.00;2126113;27;20030;-70
2022/10/21 02:08:06;;;;;;;16.38;10.57;;;;;;;11.70;100.00;92778.59;2130658;27;20023;-70
2022/10/21 02:09:07;;;;;;;25.40;9.80;;;;;;;11.72;100.00;92786.94;2130668;27;20062;-69
2022/10/21 02:10:09;;;;;;;19.58;10.48;;;;;;;11.84;100.00;92780.09;2130657;27;20018;-70
2022/10/21 02:11:11;;;;;;;16.38;8.82;;;;;;;11.81;100.00;92764.88;2127867;27;20368;-71
2022/10/21 02:12:14;;;;;;;15.65;8.73;;;;;;;11.78;100.00;92769.16;2130390;27;20030;-69
2022/10/21 02:13:30;;;;;;;18.98;10.10;;;;;;;11.81;100.00;92770.22;2130263;27;20022;-69
2022/10/21 02:16:08;;;;;;;;;;;;;;;11.75;100.00;92778.03;2146084;27;20887;-68
2022/10/21 02:17:14;;;;;;;19.02;9.20;;;;;;;11.76;100.00;92776.09;2136944;27;20005;-69
2022/10/21 02:18:22;;;;;;;14.82;9.15;;;;;;;11.71;100.00;92776.66;2133918;27;20057;-68
2022/10/21 02:19:23;;;;;;;16.70;9.27;;;;;;;11.73;100.00;92779.66;2133615;27;20468;-69
2022/10/21 02:20:27;;;;;;;19.40;9.75;;;;;;;11.71;100.00;92779.31;2132197;27;20027;-71
2022/10/21 02:21:35;;;;;;;20.95;9.82;;;;;;;11.72;100.00;92770.88;2133070;27;20031;-68
2022/10/21 02:22:38;;;;;;;16.02;8.52;;;;;;;11.71;100.00;92782.00;2133328;27;20485;-68
2022/10/21 02:23:45;;;;;;;13.95;8.40;;;;;;;11.72;100.00;92786.19;2133247;27;20025;-68
2022/10/21 02:24:52;;;;;;;15.75;8.95;;;;;;;11.71;100.00;92782.00;2133062;27;20483;-69
2022/10/21 02:25:53;;;;;;;20.05;9.43;;;;;;;11.71;100.00;92785.44;2133677;27;20093;-71
2022/10/21 02:26:54;;;;;;;17.77;8.75;;;;;;;11.72;100.00;92786.19;2123704;27;20042;-70
2022/10/21 02:27:55;;;;;;;16.48;8.93;;;;;;;11.73;100.00;92785.00;2128657;27;20062;-71
2022/10/21 02:28:58;;;;;;;18.65;8.82;;;;;;;11.73;100.00;92785.75;2133598;27;20030;-68
2022/10/21 02:30:00;;;;;;;12.48;8.05;;;;;;;11.72;100.00;92788.84;2133650;27;20756;-68
2022/10/21 02:31:19;;;;;;;16.38;8.75;;;;;;;11.76;100.00;92784.88;2124428;27;20030;-69
2022/10/21 02:32:52;;;;;;;17.77;8.85;;;;;;;11.74;100.00;92773.88;2130867;27;20046;-69
2022/10/21 02:34:01;;;;;;;21.27;9.02;;;;;;;11.76;100.00;92768.81;2133416;27;20436;-69
2022/10/21 02:35:07;;;;;;;15.88;7.95;;;;;;;11.73;100.00;92764.34;2133445;27;20023;-69
2022/10/21 02:36:21;;;;;;;17.85;8.00;;;;;;;11.88;100.00;92763.91;2133398;27;20058;-69
2022/10/21 02:37:40;;;;;;;11.90;7.57;;;;;;;11.86;100.00;92760.94;2129095;27;20087;-69
2022/10/21 02:38:47;;;;;;;9.55;6.47;;;;;;;11.92;100.00;92757.25;2133661;27;20022;-70
2022/10/21 02:39:57;;;;;;;14.15;6.70;;;;;;;11.88;100.00;92755.88;2133524;27;20360;-69
2022/10/21 02:41:05;;;;;;;14.95;6.43;;;;;;;11.81;100.00;92748.81;2127890;27;20054;-69
2022/10/21 02:42:13;;;;;;;13.50;6.35;;;;;;;11.81;100.00;92754.16;2125267;27;20033;-69
2022/10/21 02:43:20;;;;;;;15.85;6.05;;;;;;;11.84;100.00;92747.94;2133661;27;20038;-70
2022/10/21 02:44:21;;;;;;;11.65;6.95;;;;;;;11.81;100.00;92738.09;2137673;27;20030;-69
2022/10/21 02:45:22;;;;;;;14.13;7.03;;;;;;;11.82;100.00;92739.59;2124418;27;20473;-70
2022/10/21 02:46:24;;;;;;;12.15;6.05;;;;;;;11.82;100.00;92742.25;2124272;27;20027;-69
2022/10/21 02:47:25;;;;;;;14.00;6.32;;;;;;;11.86;100.00;92745.59;2133372;27;20491;-69
2022/10/21 02:48:26;;;;;;;9.73;5.03;;;;;;;11.95;100.00;92739.59;2137321;27;20422;-69
2022/10/21 02:49:27;;;;;;;11.82;5.03;;;;;;;11.97;100.00;92742.56;2136337;27;20022;-69
2022/10/21 02:50:28;;;;;;;13.45;5.80;;;;;;;12.00;100.00;92742.44;2133393;27;20046;-71
2022/10/21 02:51:29;;;;;;;12.73;4.90;;;;;;;11.95;100.00;92737.66;2124130;27;20019;-69
2022/10/21 02:52:30;;;;;;;14.93;5.35;;;;;;;11.94;100.00;92744.19;2120479;27;20065;-70
2022/10/21 02:53:31;;;;;;;14.35;4.88;;;;;;;11.95;100.00;92744.94;2132731;27;20031;-69
2022/10/21 02:54:32;;;;;;;11.65;4.88;;;;;;;11.92;100.00;92735.81;2133873;27;20027;-71
2022/10/21 02:55:33;;;;;;;13.93;5.00;;;;;;;11.91;100.00;92744.31;2133520;27;20022;-69
2022/10/21 02:56:34;;;;;;;14.43;4.63;;;;;;;11.92;100.00;92745.78;2133410;27;20041;-69
2022/10/21 02:57:35;;;;;;;16.80;5.10;;;;;;;11.88;100.00;92737.13;2133340;27;20034;-69
2022/10/21 02:58:36;;;;;;;13.30;4.90;;;;;;;11.86;100.00;92734.88;2133191;27;20267;-69
2022/10/21 02:59:37;;;;;;;14.82;5.15;;;;;;;11.87;100.00;92741.75;2132748;27;20498;-71
2022/10/21 03:00:38;;;;;;;15.75;6.53;;;;;;;11.89;100.00;92749.31;2137067;27;20342;-71
2022/10/21 03:01:39;;;;;;;12.98;6.47;;;;;;;11.90;100.00;92743.56;2133324;27;20038;-70
2022/10/21 03:02:41;;;;;;;14.27;6.03;;;;;;;11.89;100.00;92738.63;2133378;27;20537;-71
2022/10/21 03:03:41;;;;;;;10.70;5.22;;;;;;;11.86;100.00;92734.88;2132731;27;20497;-69
2022/10/21 03:04:43;;;;;;;13.93;5.22;;;;;;;11.85;100.00;92741.41;2133183;27;20096;-69
2022/10/21 03:05:44;;;;;;;15.75;4.35;;;;;;;11.91;100.00;92739.69;2134925;27;20030;-69
2022/10/21 03:06:45;;;;;;;12.23;5.57;;;;;;;11.92;100.00;92741.19;2130455;27;20023;-70
2022/10/21 03:07:47;;;;;;;10.93;4.85;;;;;;;11.89;100.00;92735.94;2124060;27;20516;-71
2022/10/21 03:08:48;;;;;;;14.77;5.43;;;;;;;11.89;100.00;92736.69;2124204;27;20080;-69
2022/10/21 03:09:49;;;;;;;10.63;4.57;;;;;;;11.87;100.00;92741.00;2133123;27;20027;-70
2022/10/21 03:10:51;;;;;;;12.45;4.85;;;;;;;11.87;100.00;92741.75;2134902;27;20030;-69
2022/10/21 03:11:51;;;;;;;14.10;4.85;;;;;;;11.87;100.00;92730.28;2131301;27;20410;-69
2022/10/21 03:12:52;;;;;;;12.55;4.80;;;;;;;11.84;100.00;92732.63;2133033;27;20045;-70
2022/10/21 03:13:53;;;;;;;14.80;4.47;;;;;;;11.84;100.00;92732.63;2134398;27;20057;-71
2022/10/21 03:14:54;;;;;;;9.23;4.00;;;;;;;11.86;100.00;92731.47;2135928;27;20803;-69
2022/10/21 03:15:57;;;;;;;15.05;4.38;;;;;;;11.88;100.00;92735.19;2136882;27;20054;-70
2022/10/21 03:16:58;;;;;;;12.73;4.00;;;;;;;11.96;100.00;92735.72;2134138;27;20122;-69
2022/10/21 03:17:59;;;;;;;11.77;3.55;;;;;;;11.93;100.00;92736.56;2132963;27;20026;-70
2022/10/21 03:19:00;;;;;;;13.30;4.25;;;;;;;11.95;100.00;92739.59;2132211;27;20026;-70
2022/10/21 03:20:01;;;;;;;10.18;3.53;;;;;;;11.95;100.00;92739.59;2129441;27;20070;-69
2022/10/21 03:21:02;;;;;;;11.15;3.83;;;;;;;11.97;100.00;92735.28;2132205;27;20022;-71
2022/10/21 03:22:03;;;;;;;8.68;3.67;;;;;;;12.08;100.00;92734.94;2137508;27;20440;-72
2022/10/21 03:23:04;;;;;;;9.75;3.63;;;;;;;12.02;100.00;92734.72;2123653;27;20085;-69
2022/10/21 03:24:05;;;;;;;12.52;3.60;;;;;;;12.02;100.00;92731.28;2123675;27;20053;-69
2022/10/21 03:25:06;;;;;;;11.85;4.05;;;;;;;12.00;100.00;92723.69;2133007;27;20023;-69
2022/10/21 03:26:07;;;;;;;8.73;3.75;;;;;;;12.01;100.00;92724.44;2133196;27;20026;-70
2022/10/21 03:27:08;;;;;;;12.65;4.07;;;;;;;12.02;100.00;92723.25;2132991;27;20034;-70
2022/10/21 03:28:09;;;;;;;10.95;3.63;;;;;;;12.15;100.00;92725.88;2122406;27;20450;-68
2022/10/21 03:29:10;;;;;;;11.63;3.67;;;;;;;12.22;100.00;92728.34;2122358;27;20485;-69
2022/10/21 03:30:11;;;;;;;13.73;3.40;;;;;;;12.18;100.00;92719.66;2127265;27;20064;-69
2022/10/21 03:31:12;;;;;;;14.68;3.95;;;;;;;12.16;100.00;92717.44;2123010;27;20118;-69
2022/10/21 03:32:13;;;;;;;14.15;4.45;;;;;;;12.13;100.00;92715.63;2129100;27;20023;-69
2022/10/21 03:33:14;;;;;;;12.82;3.85;;;;;;;12.12;100.00;92716.81;2127072;27;20037;-72
2022/10/21 03:34:15;;;;;;;13.18;4.10;;;;;;;12.14;100.00;92721.72;2127341;27;20018;-72
2022/10/21 03:35:16;;;;;;;11.98;4.43;;;;;;;12.19;100.00;92723.84;2117828;27;20027;-72
2022/10/21 03:36:18;;;;;;;10.55;3.88;;;;;;;12.15;100.00;92720.53;2117986;27;20430;-70
2022/10/21 03:37:19;;;;;;;11.85;4.10;;;;;;;12.14;100.00;92727.81;2129321;27;20487;-71
2022/10/21 03:38:20;;;;;;;14.25;3.80;;;;;;;12.21;100.00;92721.50;2131495;27;20022;-70
2022/10/21 03:39:21;;;;;;;10.23;4.20;;;;;;;12.18;100.00;92723.09;2127315;27;20046;-70
2022/10/21 03:40:22;;;;;;;12.80;3.72;;;;;;;12.20;100.00;92730.69;2127128;27;20034;-70
2022/10/21 03:41:23;;;;;;;11.13;3.63;;;;;;;12.19;100.00;92726.53;2127200;27;20631;-70
2022/10/21 03:42:25;;;;;;;12.23;3.95;;;;;;;12.30;100.00;92721.56;2129721;27;20031;-70
2022/10/21 03:43:26;;;;;;;10.23;3.90;;;;;;;12.26;100.00;92719.00;2126999;27;20027;-73
2022/10/21 03:44:27;;;;;;;14.93;4.20;;;;;;;12.27;100.00;92723.16;2127257;27;20019;-74
2022/10/21 03:45:28;;;;;;;14.95;4.18;;;;;;;12.29;100.00;92720.03;2127153;27;20050;-70
2022/10/21 03:46:29;;;;;;;11.48;4.22;;;;;;;12.28;100.00;92718.53;2127256;27;20019;-70
2022/10/21 03:47:30;;;;;;;13.55;3.80;;;;;;;12.33;100.00;92718.72;2127120;27;20111;-70
2022/10/21 03:48:31;;;;;;;9.25;3.88;;;;;;;12.22;100.00;92706.91;2127134;27;20041;-70
2022/10/21 03:49:32;;;;;;;12.15;3.63;;;;;;;12.26;100.00;92712.88;2128069;27;20022;-71
2022/10/21 03:50:33;;;;;;;15.75;5.00;;;;;;;12.45;100.00;92708.41;2127161;27;20023;-71
2022/10/21 03:51:34;;;;;;;10.35;3.80;;;;;;;12.48;100.00;92707.53;2127282;27;20058;-70
2022/10/21 03:52:36;;;;;;;11.27;4.03;;;;;;;12.39;100.00;92712.84;2127791;27;20595;-70
2022/10/21 03:53:37;;;;;;;19.65;4.30;;;;;;;12.35;100.00;92713.69;2126782;27;20033;-69
2022/10/21 03:54:38;;;;;;;10.55;4.72;;;;;;;12.28;100.00;92713.19;2126962;27;20438;-72
2022/10/21 03:55:39;;;;;;;16.63;3.92;;;;;;;12.38;100.00;92714.00;2123338;27;20485;-71
2022/10/21 03:56:40;;;;;;;16.08;4.10;;;;;;;12.29;100.00;92712.78;2127348;27;20358;-71
2022/10/21 03:57:41;;;;;;;15.15;5.00;;;;;;;12.25;100.00;92728.22;2126977;27;20102;-71
2022/10/21 03:58:42;;;;;;;14.35;5.07;;;;;;;12.19;100.00;92716.53;2131855;27;20026;-70
2022/10/21 03:59:43;;;;;;;17.65;4.43;;;;;;;12.19;100.00;92721.91;2127208;27;20051;-71
2022/10/21 04:00:44;;;;;;;13.95;4.25;;;;;;;12.18;100.00;92727.72;2127016;27;20076;-71
2022/10/21 04:01:45;;;;;;;12.15;4.63;;;;;;;12.15;100.00;92718.59;2118019;27;20023;-70
2022/10/21 04:02:46;;;;;;;13.00;4.53;;;;;;;12.16;100.00;92725.47;2117878;27;20035;-71
2022/10/21 04:03:47;;;;;;;19.00;4.10;;;;;;;12.17;100.00;92723.53;2130432;27;20023;-72
2022/10/21 04:04:48;;;;;;;16.90;4.72;;;;;;;12.14;100.00;92722.47;2127177;27;20034;-70
2022/10/21 04:05:49;;;;;;;18.67;5.13;;;;;;;12.14;100.00;92722.47;2126956;27;20015;-71
2022/10/21 04:06:50;;;;;;;12.27;4.82;;;;;;;12.12;100.00;92730.19;2126367;27;20043;-70
2022/10/21 04:07:51;;;;;;;13.88;5.50;;;;;;;12.14;100.00;92727.09;2124749;27;20031;-70
2022/10/21 04:08:52;;;;;;;12.93;4.85;;;;;;;12.13;100.00;92723.66;2127091;27;20031;-73
2022/10/21 04:09:53;;;;;;;14.85;4.78;;;;;;;12.10;100.00;92721.84;2127051;27;20050;-71
2022/10/21 04:10:56;;;;;;;11.85;4.45;;;;;;;12.19;100.00;92724.59;2126866;27;20030;-71
2022/10/21 04:11:57;;;;;;;16.75;4.68;;;;;;;12.18;100.00;92720.41;2126931;27;20072;-75
2022/10/21 04:12:58;;;;;;;18.08;4.57;;;;;;;12.15;100.00;92718.59;2130136;27;20060;-72
2022/10/21 04:13:59;;;;;;;10.45;3.92;;;;;;;12.25;100.00;92714.81;2130420;27;20046;-75
2022/10/21 04:15:00;;;;;;;14.15;5.20;;;;;;;12.28;100.00;92713.19;2126660;27;20031;-72
2022/10/21 04:16:03;;;;;;;14.90;4.45;;;;;;;12.21;100.00;92721.50;2126754;27;20457;-70
2022/10/21 04:17:04;;;;;;;16.50;4.35;;;;;;;12.16;100.00;92720.13;2131231;27;20053;-74
2022/10/21 04:18:06;;;;;;;14.93;4.50;;;;;;;12.15;100.00;92718.59;2127073;27;20453;-70
2022/10/21 04:19:07;;;;;;;14.45;4.55;;;;;;;12.13;100.00;92717.56;2121526;27;20185;-71
2022/10/21 04:20:09;;;;;;;9.48;4.38;;;;;;;12.13;100.00;92718.28;2117893;27;20024;-70
2022/10/21 04:21:11;;;;;;;12.00;4.82;;;;;;;12.09;100.00;92713.06;2126674;27;20034;-71
2022/10/21 04:22:12;;;;;;;16.52;4.60;;;;;;;12.06;100.00;92719.28;2126950;27;20454;-70
2022/10/21 04:23:13;;;;;;;16.38;4.50;;;;;;;12.06;100.00;92723.88;2126537;27;20063;-70
2022/10/21 04:24:14;;;;;;;16.60;4.85;;;;;;;12.08;100.00;92716.19;2130399;27;20042;-71
2022/10/21 04:25:15;;;;;;;15.18;4.95;;;;;;;12.05;100.00;92717.78;2121748;27;20058;-71
2022/10/21 04:26:16;;;;;;;10.50;4.38;;;;;;;12.12;100.00;92718.75;2121413;27;20106;-74
2022/10/21 04:27:17;;;;;;;9.15;3.88;;;;;;;12.18;100.00;92714.31;2127315;27;20030;-71
2022/10/21 04:28:18;;;;;;;18.50;4.95;;;;;;;12.13;100.00;92714.88;2124441;27;20489;-71
2022/10/21 04:29:20;;;;;;;17.23;4.47;;;;;;;12.07;100.00;92711.97;2128575;27;20472;-74
2022/10/21 04:30:21;;;;;;;12.10;5.03;;;;;;;12.03;100.00;92712.13;2115420;27;20735;-71
2022/10/21 04:31:22;;;;;;;9.25;4.05;;;;;;;12.03;100.00;92709.44;2114473;27;20107;-73
2022/10/21 04:32:23;;;;;;;13.82;4.78;;;;;;;11.96;100.00;92707.00;2124076;27;20633;-71
2022/10/21 04:33:24;;;;;;;13.45;4.75;;;;;;;11.97;100.00;92705.81;2123837;27;20034;-73
2022/10/21 04:34:27;;;;;;;11.73;4.40;;;;;;;11.98;100.00;92709.97;2122809;27;20026;-70
2022/10/21 04:35:28;;;;;;;10.20;4.88;;;;;;;12.02;100.00;92709.88;2123972;27;20030;-70
2022/10/21 04:36:29;;;;;;;15.90;5.50;;;;;;;11.98;100.00;92719.94;2123876;27;20023;-71
2022/10/21 04:37:30;;;;;;;13.68;4.72;;;;;;;11.97;100.00;92716.53;2124697;27;20019;-71
2022/10/21 04:38:31;;;;;;;11.57;5.10;;;;;;;11.97;100.00;92713.09;2120137;27;20046;-73
2022/10/21 04:39:32;;;;;;;8.93;4.40;;;;;;;11.96;100.00;92709.69;2127176;27;20034;-72
2022/10/21 04:40:33;;;;;;;19.35;5.30;;;;;;;11.93;100.00;92715.88;2128967;27;20030;-69
2022/10/21 04:41:34;;;;;;;16.10;4.85;;;;;;;11.93;100.00;92717.81;2123469;27;20086;-70
2022/10/21 04:42:35;;;;;;;13.80;5.45;;;;;;;11.98;100.00;92718.00;2124129;27;20881;-70
2022/10/21 04:43:37;;;;;;;12.65;4.40;;;;;;;11.99;100.00;92721.47;2120073;27;20106;-71
2022/10/21 04:44:38;;;;;;;15.30;4.57;;;;;;;11.94;100.00;92711.28;2125320;27;20031;-73
2022/10/21 04:45:39;;;;;;;14.38;4.38;;;;;;;11.92;100.00;92706.38;2128319;27;20023;-73
2022/10/21 04:46:40;;;;;;;12.35;5.00;;;;;;;11.98;100.00;92712.66;2124562;27;20031;-71
2022/10/21 04:47:42;;;;;;;11.65;4.57;;;;;;;12.02;100.00;92709.88;2124518;27;20445;-70
2022/10/21 04:48:43;;;;;;;21.13;5.35;;;;;;;12.05;100.00;92699.03;2123838;27;20061;-71
2022/10/21 04:49:45;;;;;;;9.57;4.38;;;;;;;12.01;100.00;92698.41;2125899;27;20026;-72
2022/10/21 04:50:50;;;;;;;19.00;5.45;;;;;;;12.00;100.00;92688.13;2127070;27;20033;-73
2022/10/21 04:51:51;;;;;;;16.17;5.60;;;;;;;11.95;100.00;92692.13;2124584;27;20045;-71
2022/10/21 04:52:52;;;;;;;12.63;4.90;;;;;;;11.91;100.00;92688.81;2124272;27;20496;-71
2022/10/21 04:53:54;;;;;;;17.00;5.22;;;;;;;11.97;100.00;92687.06;2124159;27;20504;-72
2022/10/21 04:54:55;;;;;;;13.30;5.05;;;;;;;11.96;100.00;92687.50;2124692;27;20035;-74
2022/10/21 04:55:56;;;;;;;15.50;4.47;;;;;;;11.91;100.00;92680.78;2126285;27;20023;-71